»·PEaware :: N208GG KSBA-KSBP

N208GG :: KSBA-KSBP

FLIGHT INFORMATION

Flight Status: Arrived
Operator: Privately registered:
United States
More flights under this callsign
Pilot: Hunter M. (19355)
Aircraft: CESSNA 172 SKYHAWK
(C172)
More flights by this aircraft type
Origin: KSBA Santa Barbara Mun
United States
Destination: KSBP San Luis Co Regl
United States
More flights between these airports :: More routes between these airports
Route: GVO V27 MQO
File this flight plan on PilotEdge
Remarks: NONE
Altitude:
(Current/Filed)
6,000ft
Speed:
(Current/Filed)
118kts
Departed: 12-Nov-19 04:12 PM
Arrived: 12-Nov-19 04:56 PM
Distance/Time
Traveled:
63nm/0:44
Distance/Time
To Go:
Arrived

Flight Plot

Page will automatically refresh every two minutes.


Map Options




Map Legend


Flown Route
Filed Route
Departure Airport
Arrival Airport
Navaid (VOR, NDB)
Fix

Horizontal Profiles

Position Reports

Time Latitude Longitude Heading Altitude Ground
Speed
12-Nov-19 15:53 34.431465 -119.831912 358 13ft 0kts
12-Nov-19 15:54 34.431466 -119.831912 358 13ft 0kts
12-Nov-19 15:55 34.431467 -119.831912 358 13ft 0kts
12-Nov-19 15:56 34.431468 -119.831912 358 13ft 0kts
12-Nov-19 15:57 34.431469 -119.831912 358 13ft 0kts
12-Nov-19 15:58 34.431469 -119.831912 358 13ft 0kts
12-Nov-19 15:59 34.431470 -119.831912 358 13ft 0kts
12-Nov-19 16:00 34.431471 -119.831912 358 13ft 0kts
12-Nov-19 16:01 34.431472 -119.831912 358 13ft 0kts
12-Nov-19 16:02 34.431473 -119.831912 358 13ft 0kts
12-Nov-19 16:03 34.431474 -119.831912 358 13ft 0kts
12-Nov-19 16:04 34.431475 -119.831912 358 13ft 0kts
12-Nov-19 16:05 34.431476 -119.831912 358 13ft 0kts
12-Nov-19 16:06 34.431770 -119.832495 290 13ft 8kts
12-Nov-19 16:07 34.431597 -119.835388 173 13ft 4kts
12-Nov-19 16:08 34.429767 -119.835255 178 13ft 9kts
12-Nov-19 16:09 34.428637 -119.835188 175 13ft 0kts
12-Nov-19 16:10 34.427897 -119.835494 265 13ft 9kts
12-Nov-19 16:11 34.427430 -119.861667 263 362ft 102kts
12-Nov-19 16:12 34.425815 -119.896747 264 1083ft 104kts
12-Nov-19 16:13 34.424102 -119.932248 264 1773ft 106kts
12-Nov-19 16:14 34.420912 -119.967592 264 2468ft 104kts
12-Nov-19 16:15 34.416499 -120.000046 264 3172ft 93kts
12-Nov-19 16:16 34.417510 -120.028090 321 3863ft 82kts
12-Nov-19 16:17 34.437536 -120.041005 334 4557ft 80kts
12-Nov-19 16:18 34.457777 -120.051839 334 5236ft 78kts
12-Nov-19 16:19 34.477104 -120.062149 334 5894ft 74kts
12-Nov-19 16:20 34.499745 -120.074223 334 6028ft 103kts
12-Nov-19 16:21 34.525438 -120.087919 334 6004ft 97kts
12-Nov-19 16:22 34.547627 -120.105920 322 6009ft 96kts
12-Nov-19 16:23 34.568880 -120.125465 322 6009ft 95kts
12-Nov-19 16:24 34.590132 -120.144955 322 6009ft 95kts
12-Nov-19 16:25 34.611418 -120.164495 322 6009ft 95kts
12-Nov-19 16:26 34.632676 -120.184021 322 6010ft 95kts
12-Nov-19 16:27 34.653953 -120.203578 322 6011ft 95kts
12-Nov-19 16:28 34.675142 -120.223075 322 6012ft 95kts
12-Nov-19 16:29 34.696332 -120.242563 322 6004ft 96kts
12-Nov-19 16:30 34.717594 -120.262138 323 5999ft 95kts
12-Nov-19 16:31 34.739687 -120.280120 335 5998ft 95kts
12-Nov-19 16:32 34.764579 -120.291393 339 5999ft 95kts
12-Nov-19 16:33 34.789672 -120.301975 339 6000ft 95kts
12-Nov-19 16:34 34.814838 -120.312391 341 6008ft 95kts
12-Nov-19 16:35 34.840469 -120.321810 341 6009ft 96kts
12-Nov-19 16:36 34.866119 -120.331235 341 6009ft 96kts
12-Nov-19 16:37 34.891783 -120.340669 341 6009ft 96kts
12-Nov-19 16:38 34.917464 -120.350113 341 6009ft 96kts
12-Nov-19 16:39 34.944122 -120.360162 341 5535ft 104kts
12-Nov-19 16:40 34.972253 -120.370900 341 4907ft 106kts
12-Nov-19 16:41 35.000740 -120.381854 341 4276ft 107kts
12-Nov-19 16:42 35.029419 -120.392966 341 3645ft 108kts
12-Nov-19 16:43 35.057245 -120.403745 341 3285ft 95kts
12-Nov-19 16:44 35.081171 -120.412928 341 3305ft 88kts
12-Nov-19 16:45 35.104699 -120.421948 341 3306ft 88kts
12-Nov-19 16:46 35.119025 -120.443910 304 3313ft 89kts
12-Nov-19 16:47 35.134747 -120.467740 313 3191ft 97kts
12-Nov-19 16:48 35.153704 -120.492944 313 2882ft 94kts
12-Nov-19 16:49 35.169474 -120.517025 302 2870ft 90kts
12-Nov-19 16:50 35.181652 -120.540873 303 2566ft 82kts
12-Nov-19 16:51 35.193488 -120.562508 298 2084ft 78kts
12-Nov-19 16:52 35.204988 -120.586279 303 1482ft 79kts
12-Nov-19 16:53 35.217998 -120.607388 311 881ft 77kts
12-Nov-19 16:54 35.230478 -120.628682 301 407ft 74kts
12-Nov-19 16:55 35.237888 -120.641878 325 215ft 0kts
12-Nov-19 16:56 35.238234 -120.641322 78 215ft 0kts
12-Nov-19 16:57 35.238519 -120.640188 52 215ft 21kts

Navigation Log

Ident Type
Flight plan parsing failed, navigation log unavailable